createdAt,value
2019-03-22T00:01:59.893Z,16.57
2019-03-22T00:04:29.860Z,13.73
2019-03-22T00:06:59.743Z,14.00
2019-03-22T00:09:29.745Z,15.60
2019-03-22T00:11:59.760Z,16.03
2019-03-22T00:14:29.737Z,13.40
2019-03-22T00:16:59.689Z,14.60
2019-03-22T00:19:29.684Z,10.60
2019-03-22T00:21:59.662Z,12.33
2019-03-22T00:24:29.732Z,13.10
2019-03-22T00:26:59.791Z,13.60
2019-03-22T00:29:29.723Z,16.10
2019-03-22T00:31:59.630Z,13.23
2019-03-22T00:34:29.662Z,11.73
2019-03-22T00:36:59.627Z,12.17
2019-03-22T00:39:48.422Z,13.03
2019-03-22T00:42:18.397Z,13.27
2019-03-22T00:44:48.305Z,11.63
2019-03-22T00:47:18.325Z,13.77
2019-03-22T00:49:48.195Z,14.23
2019-03-22T00:52:18.155Z,16.17
2019-03-22T00:54:48.168Z,13.50
2019-03-22T00:57:27.985Z,14.13
2019-03-22T00:59:49.725Z,12.87
2019-03-22T01:02:19.723Z,14.57
2019-03-22T01:04:49.683Z,14.60
2019-03-22T01:07:19.595Z,13.40
2019-03-22T01:09:49.716Z,14.70
2019-03-22T01:12:19.615Z,13.77
2019-03-22T01:14:49.500Z,13.13
2019-03-22T01:17:19.519Z,13.00
2019-03-22T01:19:49.463Z,15.90
2019-03-22T01:22:19.444Z,12.00
2019-03-22T01:24:49.417Z,12.40
2019-03-22T01:27:19.401Z,13.47
2019-03-22T01:29:49.283Z,13.13
2019-03-22T01:32:19.318Z,12.60
2019-03-22T01:34:49.277Z,13.30
2019-03-22T01:37:19.236Z,14.90
2019-03-22T01:39:49.159Z,13.80
2019-03-22T01:42:19.052Z,12.70
2019-03-22T01:44:48.913Z,15.63
2019-03-22T01:47:18.939Z,13.60
2019-03-22T01:49:48.838Z,14.70
2019-03-22T01:52:18.808Z,12.50
2019-03-22T01:54:48.750Z,13.37
2019-03-22T01:57:18.720Z,14.73
2019-03-22T01:59:48.607Z,14.90
2019-03-22T02:02:18.613Z,13.77
2019-03-22T02:04:48.484Z,12.73
2019-03-22T02:07:18.363Z,12.67
2019-03-22T02:09:48.373Z,12.33
2019-03-22T02:12:18.356Z,14.57
2019-03-22T02:14:48.275Z,12.40
2019-03-22T02:17:18.301Z,15.53
2019-03-22T02:19:48.189Z,13.57
2019-03-22T02:22:19.197Z,14.93
2019-03-22T02:24:49.149Z,17.17
2019-03-22T02:27:19.071Z,11.50
2019-03-22T02:29:49.051Z,12.90
2019-03-22T02:32:19.073Z,12.97
2019-03-22T02:34:49.010Z,12.33
2019-03-22T02:37:18.994Z,13.07
2019-03-22T02:39:48.943Z,13.17
2019-03-22T02:42:18.922Z,11.23
2019-03-22T02:44:48.906Z,13.37
2019-03-22T02:47:18.884Z,12.03
2019-03-22T02:49:48.792Z,12.10
2019-03-22T02:52:18.767Z,12.80
2019-03-22T02:54:48.766Z,13.60
2019-03-22T02:57:18.711Z,13.27
2019-03-22T02:59:48.705Z,11.50
2019-03-22T03:02:18.757Z,14.90
2019-03-22T03:04:48.710Z,14.47
2019-03-22T03:07:18.667Z,13.13
2019-03-22T03:09:48.700Z,14.00
2019-03-22T03:12:18.654Z,11.73
2019-03-22T03:14:48.633Z,13.77
2019-03-22T03:17:18.648Z,14.20
2019-03-22T03:19:48.615Z,13.43
2019-03-22T03:22:18.573Z,12.70
2019-03-22T03:24:48.546Z,14.67
2019-03-22T03:27:18.508Z,15.27
2019-03-22T03:29:48.451Z,13.20
2019-03-22T03:32:18.442Z,11.90
2019-03-22T03:34:48.417Z,15.80
2019-03-22T03:37:18.381Z,16.10
2019-03-22T03:39:48.444Z,13.70
2019-03-22T03:42:18.390Z,13.80
2019-03-22T03:44:48.348Z,15.53
2019-03-22T03:47:18.374Z,13.83
2019-03-22T03:49:48.343Z,14.37
2019-03-22T03:52:18.340Z,16.83
2019-03-22T03:54:48.354Z,15.13
2019-03-22T03:57:18.241Z,14.87
2019-03-22T03:59:48.222Z,15.10
2019-03-22T04:02:18.268Z,12.00
2019-03-22T04:04:48.250Z,14.60
2019-03-22T04:07:18.176Z,19.80
2019-03-22T04:09:48.153Z,15.27
2019-03-22T04:12:18.054Z,13.23
2019-03-22T04:14:48.001Z,13.90
2019-03-22T04:17:18.041Z,15.13
2019-03-22T04:19:48.003Z,13.50
2019-03-22T04:22:17.972Z,16.87
2019-03-22T04:24:48.009Z,13.00
2019-03-22T04:27:18.000Z,13.87
2019-03-22T04:29:47.960Z,14.37
2019-03-22T04:32:17.913Z,18.43
2019-03-22T04:34:47.806Z,14.43
2019-03-22T04:37:17.767Z,21.60
2019-03-22T04:39:47.779Z,23.10
2019-03-22T04:42:18.034Z,17.13
2019-03-22T04:44:47.997Z,12.33
2019-03-22T04:47:20.979Z,12.67
2019-03-22T04:49:52.467Z,17.23
2019-03-22T04:52:25.815Z,12.40
2019-03-22T04:54:58.789Z,12.90
2019-03-22T04:57:30.238Z,13.70
2019-03-22T05:00:01.983Z,13.87
2019-03-22T05:02:33.533Z,17.03
2019-03-22T05:05:04.933Z,16.00
2019-03-22T05:07:35.405Z,14.90
2019-03-22T05:10:06.314Z,14.87
2019-03-22T05:12:37.396Z,15.43
2019-03-22T05:15:09.721Z,16.23
2019-03-22T05:17:39.587Z,13.50
2019-03-22T05:20:11.082Z,16.43
2019-03-22T05:22:41.794Z,18.43
2019-03-22T05:25:12.799Z,19.93
2019-03-22T05:27:45.527Z,16.67
2019-03-22T05:30:40.636Z,17.80
2019-03-22T05:33:10.580Z,16.73
2019-03-22T05:35:40.493Z,15.40
2019-03-22T05:38:10.395Z,12.73
2019-03-22T05:40:40.336Z,16.83
2019-03-22T05:43:10.220Z,17.03
2019-03-22T05:45:40.143Z,15.40
2019-03-22T05:48:10.120Z,19.47
2019-03-22T05:50:40.013Z,16.30
2019-03-22T05:53:09.874Z,19.83
2019-03-22T05:55:39.806Z,15.97
2019-03-22T05:58:09.788Z,20.73
2019-03-22T06:00:39.726Z,21.40
2019-03-22T06:03:09.648Z,25.83
2019-03-22T06:05:39.567Z,21.27
2019-03-22T06:08:09.501Z,24.33
2019-03-22T06:10:39.429Z,21.00
2019-03-22T06:13:09.381Z,24.90
2019-03-22T06:15:39.328Z,29.57
2019-03-22T06:18:09.273Z,34.27
2019-03-22T06:20:39.187Z,23.47
2019-03-22T06:23:09.144Z,25.73
2019-03-22T06:25:39.112Z,33.37
2019-03-22T06:28:09.110Z,34.33
2019-03-22T06:30:38.990Z,29.87
2019-03-22T06:33:08.965Z,21.90
2019-03-22T06:35:38.877Z,22.50
2019-03-22T06:38:08.825Z,23.40
2019-03-22T06:40:38.810Z,20.10
2019-03-22T06:43:08.794Z,20.10
2019-03-22T06:45:38.766Z,25.10
2019-03-22T06:48:08.791Z,23.07
2019-03-22T06:50:38.754Z,21.07
2019-03-22T06:53:08.737Z,21.23
2019-03-22T06:55:38.754Z,23.70
2019-03-22T06:58:08.712Z,27.07
2019-03-22T07:00:38.608Z,22.33
2019-03-22T07:03:08.631Z,23.03
2019-03-22T07:05:38.526Z,23.70
2019-03-22T07:08:08.477Z,20.53
2019-03-22T07:10:38.507Z,22.17
2019-03-22T07:13:08.485Z,23.77
2019-03-22T07:15:38.389Z,28.67
2019-03-22T07:18:08.408Z,22.80
2019-03-22T07:20:38.383Z,23.77
2019-03-22T07:23:08.348Z,25.80
2019-03-22T07:25:38.279Z,19.50
2019-03-22T07:28:08.178Z,23.23
2019-03-22T07:30:38.140Z,23.70
2019-03-22T07:33:08.105Z,19.73
2019-03-22T07:35:38.374Z,23.67
2019-03-22T07:38:08.345Z,23.70
2019-03-22T07:40:38.616Z,24.50
2019-03-22T07:43:08.512Z,20.87
2019-03-22T07:45:38.495Z,21.53
2019-03-22T07:48:08.507Z,17.20
2019-03-22T07:50:38.408Z,17.77
2019-03-22T07:53:08.381Z,24.13
2019-03-22T07:55:38.628Z,19.10
2019-03-22T07:58:08.507Z,21.13
2019-03-22T08:00:38.680Z,16.33
2019-03-22T08:03:08.664Z,17.27
2019-03-22T08:05:50.228Z,19.83
2019-03-22T08:08:10.166Z,17.80
2019-03-22T08:10:40.199Z,17.97
2019-03-22T08:13:10.126Z,19.63
2019-03-22T08:15:40.073Z,19.93
2019-03-22T08:18:10.070Z,18.93
2019-03-22T08:20:40.088Z,18.47
2019-03-22T08:23:20.082Z,20.07
2019-03-22T08:25:50.128Z,16.87
2019-03-22T08:28:31.121Z,28.17
2019-03-22T08:31:01.112Z,18.80
2019-03-22T08:33:31.066Z,21.80
2019-03-22T08:36:01.099Z,18.50
2019-03-22T08:38:31.045Z,21.17
2019-03-22T08:41:01.004Z,20.23
2019-03-22T08:43:31.056Z,20.30
2019-03-22T08:46:01.110Z,20.73
2019-03-22T08:48:31.093Z,18.53
2019-03-22T08:51:01.106Z,20.97
2019-03-22T08:53:31.067Z,21.53
2019-03-22T08:56:01.054Z,20.87
2019-03-22T08:58:31.078Z,21.10
2019-03-22T09:01:01.136Z,25.27
2019-03-22T09:03:31.046Z,25.40
2019-03-22T09:06:00.979Z,25.30
2019-03-22T09:08:30.937Z,27.77
2019-03-22T09:11:00.906Z,27.30
2019-03-22T09:13:30.939Z,28.63
2019-03-22T09:16:00.919Z,28.13
2019-03-22T09:18:30.890Z,24.93
2019-03-22T09:21:00.910Z,23.67
2019-03-22T09:23:30.902Z,24.17
2019-03-22T09:26:00.895Z,30.43
2019-03-22T09:28:30.910Z,34.93
2019-03-22T09:31:10.239Z,28.83
2019-03-22T09:33:32.501Z,30.60
2019-03-22T09:36:02.445Z,28.73
2019-03-22T09:38:32.344Z,31.10
2019-03-22T09:41:02.263Z,36.00
2019-03-22T09:43:32.194Z,30.77
2019-03-22T09:46:02.142Z,31.73
2019-03-22T09:48:32.075Z,35.40
2019-03-22T09:51:02.063Z,34.27
2019-03-22T09:53:31.998Z,35.03
2019-03-22T09:56:01.862Z,35.00
2019-03-22T09:58:31.887Z,37.50
2019-03-22T10:01:01.777Z,36.03
2019-03-22T10:03:31.826Z,33.37
2019-03-22T10:06:01.792Z,52.07
2019-03-22T10:08:31.708Z,43.60
2019-03-22T10:11:01.687Z,37.13
2019-03-22T10:13:31.696Z,43.33
2019-03-22T10:16:02.108Z,39.50
2019-03-22T10:18:32.091Z,38.67
2019-03-22T10:21:02.110Z,38.23
2019-03-22T10:23:32.113Z,37.10
2019-03-22T10:26:02.122Z,38.70
2019-03-22T10:28:32.103Z,34.53
2019-03-22T10:31:02.154Z,40.87
2019-03-22T10:33:32.152Z,35.30
2019-03-22T10:36:02.156Z,36.37
2019-03-22T10:38:32.334Z,37.40
2019-03-22T10:41:02.460Z,30.20
2019-03-22T10:43:32.554Z,34.27
2019-03-22T10:46:02.521Z,34.07
2019-03-22T10:48:32.470Z,32.13
2019-03-22T10:51:02.719Z,36.33
2019-03-22T10:53:32.713Z,33.57
2019-03-22T10:56:02.649Z,41.53
2019-03-22T10:58:32.597Z,32.10
2019-03-22T11:01:02.492Z,33.13
2019-03-22T11:03:33.159Z,31.37
2019-03-22T11:06:03.457Z,35.80
2019-03-22T11:08:33.393Z,48.53
2019-03-22T11:11:03.290Z,36.30
2019-03-22T11:13:33.268Z,35.00
2019-03-22T11:16:03.191Z,33.00
2019-03-22T11:18:37.339Z,33.20
2019-03-22T11:21:05.691Z,33.50
2019-03-22T11:23:35.850Z,36.47
2019-03-22T11:26:05.935Z,34.50
2019-03-22T11:28:35.883Z,31.93
2019-03-22T11:31:05.954Z,40.07
2019-03-22T11:33:35.948Z,33.33
2019-03-22T11:36:06.052Z,34.47
2019-03-22T11:38:36.046Z,34.03
2019-03-22T11:41:06.383Z,32.77
2019-03-22T11:43:36.373Z,32.90
2019-03-22T11:46:06.354Z,34.20
2019-03-22T11:48:36.268Z,31.97
2019-03-22T11:51:06.677Z,33.00
2019-03-22T11:53:36.656Z,31.47
2019-03-22T11:56:09.365Z,32.10
2019-03-22T11:58:38.974Z,31.63
2019-03-22T12:01:09.066Z,32.27
2019-03-22T12:03:39.033Z,33.93
2019-03-22T12:06:09.001Z,30.90
2019-03-22T12:08:38.988Z,33.90
2019-03-22T12:11:08.896Z,30.73
2019-03-22T12:13:38.849Z,34.63
2019-03-22T12:16:08.861Z,38.57
2019-03-22T12:18:38.870Z,34.80
2019-03-22T12:21:08.757Z,33.20
2019-03-22T12:23:38.714Z,34.83
2019-03-22T12:26:08.747Z,33.07
2019-03-22T12:28:38.714Z,35.43
2019-03-22T12:31:08.679Z,34.13
2019-03-22T12:33:38.635Z,33.67
2019-03-22T12:36:08.617Z,31.63
2019-03-22T12:38:38.525Z,32.33
2019-03-22T12:41:08.481Z,28.23
2019-03-22T12:43:38.408Z,32.17
2019-03-22T12:46:08.316Z,34.50
2019-03-22T12:48:38.244Z,28.87
2019-03-22T12:51:08.225Z,30.00
2019-03-22T12:53:38.176Z,31.97
2019-03-22T12:56:08.205Z,34.10
2019-03-22T12:58:38.111Z,29.53
2019-03-22T13:01:10.177Z,29.93
2019-03-22T13:03:39.943Z,31.13
2019-03-22T13:06:09.937Z,30.20
2019-03-22T13:08:39.953Z,30.77
2019-03-22T13:11:09.871Z,32.93
2019-03-22T13:13:39.852Z,32.83
2019-03-22T13:16:09.862Z,32.70
2019-03-22T13:18:49.645Z,32.03
2019-03-22T13:21:11.517Z,33.23
2019-03-22T13:23:41.510Z,28.73
2019-03-22T13:26:11.416Z,30.13
2019-03-22T13:28:41.312Z,29.93
2019-03-22T13:31:11.745Z,30.33
2019-03-22T13:33:41.853Z,37.67
2019-03-22T13:36:11.896Z,30.83
2019-03-22T13:38:41.901Z,30.50
2019-03-22T13:41:11.847Z,28.90
2019-03-22T13:43:41.745Z,30.40
2019-03-22T13:46:11.700Z,27.93
2019-03-22T13:48:41.649Z,33.57
2019-03-22T13:51:11.644Z,25.70
2019-03-22T13:53:41.610Z,32.00
2019-03-22T13:56:11.571Z,28.20
2019-03-22T13:58:41.456Z,26.67
2019-03-22T14:01:11.340Z,27.03
2019-03-22T14:03:41.340Z,29.10
2019-03-22T14:06:11.308Z,28.67
2019-03-22T14:08:41.246Z,31.03
2019-03-22T14:11:11.235Z,25.90
2019-03-22T14:13:41.130Z,28.77
2019-03-22T14:16:11.044Z,28.97
2019-03-22T14:18:41.077Z,35.03
2019-03-22T14:21:10.996Z,31.13
2019-03-22T14:23:40.913Z,31.67
2019-03-22T14:26:10.926Z,29.60
2019-03-22T14:28:40.811Z,28.43
2019-03-22T14:31:11.133Z,29.83
2019-03-22T14:33:41.104Z,34.40
2019-03-22T14:36:11.073Z,33.77
2019-03-22T14:38:41.071Z,35.53
2019-03-22T14:41:11.106Z,27.10
2019-03-22T14:43:41.056Z,34.20
2019-03-22T14:46:11.036Z,29.77
2019-03-22T14:48:40.939Z,33.80
2019-03-22T14:51:10.899Z,31.37
2019-03-22T14:53:40.864Z,33.70
2019-03-22T14:56:10.797Z,30.90
2019-03-22T14:58:40.782Z,30.37
2019-03-22T15:01:10.751Z,34.17
2019-03-22T15:03:40.744Z,32.93
2019-03-22T15:06:10.650Z,32.03
2019-03-22T15:08:40.599Z,34.97
2019-03-22T15:11:10.673Z,34.43
2019-03-22T15:14:02.498Z,32.70
2019-03-22T15:16:48.689Z,36.33
2019-03-22T15:19:52.579Z,33.70
2019-03-22T15:22:44.296Z,29.20
2019-03-22T15:25:26.178Z,30.00
2019-03-22T15:28:13.825Z,32.97
2019-03-22T15:31:11.686Z,34.40
2019-03-22T15:34:04.798Z,34.83
2019-03-22T15:36:52.972Z,30.43
2019-03-22T15:42:03.648Z,30.07
2019-03-22T15:44:33.620Z,31.50
2019-03-22T15:47:03.599Z,31.90
2019-03-22T15:49:33.618Z,33.13
2019-03-22T15:52:03.626Z,31.67
2019-03-22T15:54:33.629Z,34.83
2019-03-22T15:57:03.547Z,33.83
2019-03-22T15:59:33.552Z,33.17
2019-03-22T16:02:03.657Z,36.10
2019-03-22T16:04:33.669Z,35.63
2019-03-22T16:07:03.665Z,33.17
2019-03-22T16:09:33.669Z,35.07
2019-03-22T16:12:03.916Z,38.57
2019-03-22T16:14:33.871Z,37.47
2019-03-22T16:17:03.894Z,33.57
2019-03-22T16:19:33.929Z,34.27
2019-03-22T16:22:03.952Z,37.10
2019-03-22T16:24:33.871Z,39.17
2019-03-22T16:27:03.816Z,33.53
2019-03-22T16:29:33.734Z,35.67
2019-03-22T16:32:03.726Z,32.33
2019-03-22T16:34:33.720Z,38.67
2019-03-22T16:37:04.994Z,34.50
2019-03-22T16:39:35.052Z,35.23
2019-03-22T16:42:05.025Z,35.23
2019-03-22T16:44:35.021Z,35.83
2019-03-22T16:47:05.053Z,36.43
2019-03-22T16:49:35.025Z,35.37
2019-03-22T16:52:04.928Z,37.10
2019-03-22T16:54:34.912Z,34.87
2019-03-22T16:57:04.913Z,34.83
2019-03-22T16:59:34.970Z,32.80
2019-03-22T17:02:05.020Z,37.73
2019-03-22T17:04:35.039Z,40.77
2019-03-22T17:07:05.015Z,39.03
2019-03-22T17:09:35.005Z,45.57
2019-03-22T17:12:05.028Z,42.73
2019-03-22T17:14:34.995Z,41.90
2019-03-22T17:17:05.052Z,37.30
2019-03-22T17:19:35.147Z,38.30
2019-03-22T17:22:05.207Z,37.20
2019-03-22T17:24:35.294Z,36.47
2019-03-22T17:27:05.262Z,38.27
2019-03-22T17:29:35.244Z,32.73
2019-03-22T17:32:05.527Z,36.83
2019-03-22T17:34:35.544Z,39.73
2019-03-22T17:37:05.541Z,42.33
2019-03-22T17:39:35.590Z,39.50
2019-03-22T17:42:05.610Z,41.03
2019-03-22T17:44:35.680Z,42.67
2019-03-22T17:47:06.051Z,46.73
2019-03-22T17:49:36.046Z,50.47
2019-03-22T17:52:06.021Z,55.53
2019-03-22T17:54:36.072Z,65.70
2019-03-22T17:57:06.152Z,67.63
2019-03-22T17:59:36.126Z,69.63
2019-03-22T18:02:06.126Z,65.60
2019-03-22T18:04:36.251Z,66.87
2019-03-22T18:07:06.244Z,65.47
2019-03-22T18:09:36.197Z,67.50
2019-03-22T18:12:06.255Z,65.00
2019-03-22T18:14:36.339Z,61.23
2019-03-22T18:17:06.251Z,51.83
2019-03-22T18:19:36.268Z,48.47
2019-03-22T18:22:06.188Z,43.90
2019-03-22T18:24:36.261Z,41.20
2019-03-22T18:27:06.559Z,45.83
2019-03-22T18:29:36.679Z,39.67
2019-03-22T18:32:06.720Z,43.07
2019-03-22T18:34:37.590Z,42.30
2019-03-22T18:37:07.762Z,41.90
2019-03-22T18:39:37.864Z,43.10
2019-03-22T18:42:07.861Z,41.03
2019-03-22T18:44:37.898Z,43.27
2019-03-22T18:47:07.928Z,40.93
2019-03-22T18:49:37.899Z,44.00
2019-03-22T18:52:08.308Z,40.60
2019-03-22T18:54:38.504Z,41.87
2019-03-22T18:57:08.466Z,36.27
2019-03-22T18:59:38.485Z,41.97
2019-03-22T19:02:08.365Z,43.77
2019-03-22T19:04:43.916Z,44.03
2019-03-22T19:07:10.002Z,42.33
2019-03-22T19:09:40.041Z,47.03
2019-03-22T19:12:10.128Z,41.73
2019-03-22T19:14:40.093Z,40.07
2019-03-22T19:17:13.448Z,36.57
2019-03-22T19:19:43.419Z,35.67
2019-03-22T19:22:13.300Z,38.33
2019-03-22T19:24:43.367Z,40.47
2019-03-22T19:27:13.330Z,34.37
2019-03-22T19:29:43.359Z,35.60
2019-03-22T19:32:13.926Z,33.67
2019-03-22T19:34:53.914Z,35.77
2019-03-22T19:37:15.609Z,35.67
2019-03-22T19:39:45.602Z,36.73
2019-03-22T19:42:16.697Z,40.13
2019-03-22T19:44:46.687Z,41.87
2019-03-22T19:47:16.929Z,42.33
2019-03-22T19:49:46.974Z,44.17
2019-03-22T19:52:16.993Z,50.43
2019-03-22T19:54:47.099Z,44.80
2019-03-22T19:57:17.318Z,41.87
2019-03-22T19:59:47.341Z,39.77
2019-03-22T20:02:17.331Z,39.37
2019-03-22T20:04:47.283Z,33.97
2019-03-22T20:07:26.393Z,35.80
2019-03-22T20:09:48.877Z,35.30
2019-03-22T20:12:18.908Z,37.97
2019-03-22T20:14:48.868Z,34.23
2019-03-22T20:17:18.828Z,34.37
2019-03-22T20:19:48.802Z,35.47
2019-03-22T20:22:18.775Z,34.37
2019-03-22T20:24:48.749Z,33.67
2019-03-22T20:27:19.009Z,33.80
2019-03-22T20:29:48.979Z,36.70
2019-03-22T20:32:19.001Z,37.57
2019-03-22T20:34:48.996Z,34.23
2019-03-22T20:37:19.233Z,32.37
2019-03-22T20:39:50.831Z,32.47
2019-03-22T20:42:20.795Z,32.60
2019-03-22T20:44:50.837Z,33.27
2019-03-22T20:47:20.867Z,32.80
2019-03-22T20:49:52.313Z,30.37
2019-03-22T20:52:22.248Z,29.63
2019-03-22T20:54:52.540Z,29.60
2019-03-22T20:57:22.558Z,29.97
2019-03-22T20:59:52.540Z,31.50
2019-03-22T21:02:22.460Z,30.53
2019-03-22T21:04:52.761Z,28.97
2019-03-22T21:07:23.120Z,29.97
2019-03-22T21:09:53.066Z,36.47
2019-03-22T21:12:23.098Z,29.63
2019-03-22T21:14:53.036Z,31.37
2019-03-22T21:17:22.925Z,27.03
2019-03-22T21:19:52.814Z,30.27
2019-03-22T21:22:22.769Z,29.53
2019-03-22T21:24:52.925Z,29.70
2019-03-22T21:27:22.921Z,28.87
2019-03-22T21:29:52.846Z,30.10
2019-03-22T21:32:22.793Z,26.57
2019-03-22T21:34:52.777Z,25.97
2019-03-22T21:37:22.717Z,23.57
2019-03-22T21:39:52.746Z,27.87
2019-03-22T21:42:22.773Z,24.10
2019-03-22T21:44:52.732Z,26.33
2019-03-22T21:47:22.783Z,26.80
2019-03-22T21:49:52.866Z,24.53
2019-03-22T21:52:22.902Z,23.67
2019-03-22T21:54:52.925Z,26.87
2019-03-22T21:57:22.927Z,26.03
2019-03-22T21:59:52.852Z,26.63
2019-03-22T22:02:22.847Z,26.63
2019-03-22T22:04:52.882Z,24.83
2019-03-22T22:07:23.308Z,25.37
2019-03-22T22:09:53.363Z,27.20
2019-03-22T22:12:23.315Z,26.93
2019-03-22T22:14:53.359Z,30.03
2019-03-22T22:17:24.167Z,27.37
2019-03-22T22:19:54.364Z,25.77
2019-03-22T22:22:24.407Z,29.47
2019-03-22T22:24:54.377Z,28.47
2019-03-22T22:27:24.957Z,31.37
2019-03-22T22:29:54.917Z,26.87
2019-03-22T22:32:24.949Z,32.43
2019-03-22T22:34:54.973Z,39.80
2019-03-22T22:37:24.949Z,32.33
2019-03-22T22:39:54.987Z,30.50
2019-03-22T22:42:25.036Z,31.40
2019-03-22T22:44:54.996Z,28.73
2019-03-22T22:47:25.024Z,30.47
2019-03-22T22:49:54.987Z,34.77
2019-03-22T22:52:24.893Z,32.63
2019-03-22T22:54:54.856Z,28.20
2019-03-22T22:57:24.815Z,27.07
2019-03-22T22:59:54.680Z,29.43
2019-03-22T23:02:24.620Z,25.83
2019-03-22T23:04:54.465Z,24.80
2019-03-22T23:07:24.356Z,23.97
2019-03-22T23:09:54.214Z,27.53
2019-03-22T23:12:24.160Z,26.07
2019-03-22T23:14:54.097Z,24.20
2019-03-22T23:17:23.992Z,23.00
2019-03-22T23:19:53.985Z,23.90
2019-03-22T23:22:24.183Z,25.57
2019-03-22T23:24:54.064Z,22.87
2019-03-22T23:27:23.983Z,24.20
2019-03-22T23:29:53.978Z,24.70
2019-03-22T23:32:23.906Z,23.93
2019-03-22T23:34:58.993Z,23.17
2019-03-22T23:37:25.421Z,22.03
2019-03-22T23:39:55.384Z,23.07
2019-03-22T23:42:25.335Z,23.33
2019-03-22T23:44:55.266Z,23.27
2019-03-22T23:47:25.253Z,22.13
2019-03-22T23:49:55.164Z,25.17
2019-03-22T23:52:25.157Z,20.63
2019-03-22T23:54:55.042Z,19.70
2019-03-22T23:57:24.986Z,19.83
2019-03-22T23:59:54.989Z,20.53
